createdAt,value
2023-04-18T00:01:40.707Z,9.55
2023-04-18T00:04:09.446Z,8.73
2023-04-18T00:06:36.713Z,9.75
2023-04-18T00:09:04.236Z,5.00
2023-04-18T00:11:31.434Z,7.13
2023-04-18T00:13:59.704Z,14.48
2023-04-18T00:16:28.610Z,14.85
2023-04-18T00:18:57.482Z,18.13
2023-04-18T00:21:27.249Z,9.30
2023-04-18T00:23:57.335Z,11.68
2023-04-18T00:26:24.793Z,10.23
2023-04-18T00:28:54.482Z,8.55
2023-04-18T00:31:21.686Z,11.20
2023-04-18T00:33:51.364Z,7.45
2023-04-18T00:36:33.750Z,7.45
2023-04-18T00:39:00.826Z,4.75
2023-04-18T00:41:28.616Z,5.57
2023-04-18T00:43:55.822Z,5.57
2023-04-18T00:46:23.195Z,5.10
2023-04-18T00:48:51.067Z,5.15
2023-04-18T00:51:18.536Z,7.40
2023-04-18T00:53:46.514Z,7.65
2023-04-18T00:56:13.793Z,8.13
2023-04-18T00:58:41.372Z,10.23
2023-04-18T01:01:10.030Z,10.90
2023-04-18T01:03:37.812Z,9.48
2023-04-18T01:06:05.261Z,8.25
2023-04-18T01:08:33.620Z,6.03
2023-04-18T01:11:00.820Z,6.38
2023-04-18T01:13:27.938Z,9.60
2023-04-18T01:15:56.153Z,9.98
2023-04-18T01:18:23.326Z,11.35
2023-04-18T01:20:52.085Z,9.63
2023-04-18T01:23:21.021Z,9.95
2023-04-18T01:25:51.839Z,11.18
2023-04-18T01:28:21.533Z,11.23
2023-04-18T01:30:48.959Z,13.35
2023-04-18T01:33:16.656Z,20.27
2023-04-18T01:35:46.123Z,13.10
2023-04-18T01:38:13.273Z,10.70
2023-04-18T01:40:40.444Z,12.40
2023-04-18T01:43:07.583Z,16.42
2023-04-18T01:45:37.905Z,10.88
2023-04-18T01:48:05.147Z,8.90
2023-04-18T01:50:32.322Z,9.73
2023-04-18T01:52:59.467Z,9.98
2023-04-18T01:55:26.676Z,9.13
2023-04-18T01:57:55.018Z,14.30
2023-04-18T02:00:22.379Z,12.60
2023-04-18T02:02:50.785Z,11.15
2023-04-18T02:05:20.877Z,12.88
2023-04-18T02:07:50.406Z,13.50
2023-04-18T02:10:18.603Z,14.50
2023-04-18T02:12:45.934Z,18.77
2023-04-18T02:15:13.090Z,11.88
2023-04-18T02:17:42.216Z,10.20
2023-04-18T02:20:11.014Z,10.30
2023-04-18T02:22:38.618Z,9.68
2023-04-18T02:25:06.184Z,11.15
2023-04-18T02:27:33.322Z,11.65
2023-04-18T02:30:00.442Z,12.70
2023-04-18T02:32:27.609Z,11.35
2023-04-18T02:34:54.776Z,15.25
2023-04-18T02:37:21.956Z,15.98
2023-04-18T02:39:49.073Z,13.57
2023-04-18T02:42:16.290Z,12.52
2023-04-18T02:44:43.408Z,18.27
2023-04-18T02:47:10.704Z,13.90
2023-04-18T02:49:41.211Z,15.13
2023-04-18T02:52:08.383Z,19.67
2023-04-18T02:54:35.487Z,16.58
2023-04-18T02:57:08.009Z,16.13
2023-04-18T02:59:58.387Z,18.38
2023-04-18T03:02:25.774Z,15.65
2023-04-18T03:04:57.747Z,13.00
2023-04-18T03:07:25.067Z,12.80
2023-04-18T03:09:52.711Z,16.20
2023-04-18T03:12:25.054Z,19.20
2023-04-18T03:14:52.230Z,23.85
2023-04-18T03:17:19.733Z,35.90
2023-04-18T03:19:49.281Z,30.58
2023-04-18T03:22:19.588Z,24.85
2023-04-18T03:24:57.080Z,30.70
2023-04-18T03:27:39.388Z,24.48
2023-04-18T03:30:07.714Z,21.70
2023-04-18T03:32:36.652Z,16.88
2023-04-18T03:35:04.268Z,21.88
2023-04-18T03:37:31.325Z,21.10
2023-04-18T03:39:59.903Z,21.88
2023-04-18T03:42:28.736Z,17.77
2023-04-18T03:44:56.020Z,22.83
2023-04-18T03:47:23.668Z,18.38
2023-04-18T03:49:55.985Z,35.75
2023-04-18T03:52:25.006Z,27.27
2023-04-18T03:54:52.296Z,28.63
2023-04-18T03:57:24.192Z,22.75
2023-04-18T03:59:52.103Z,18.83
2023-04-18T04:02:19.423Z,13.60
2023-04-18T04:04:47.304Z,18.05
2023-04-18T04:07:14.905Z,20.13
2023-04-18T04:09:42.474Z,16.95
2023-04-18T04:12:09.795Z,15.95
2023-04-18T04:14:37.300Z,18.48
2023-04-18T04:17:04.651Z,17.23
2023-04-18T04:19:32.011Z,14.82
2023-04-18T04:22:09.275Z,15.77
2023-04-18T04:24:38.758Z,21.92
2023-04-18T04:27:07.215Z,18.02
2023-04-18T04:29:39.037Z,15.52
2023-04-18T04:32:07.076Z,15.70
2023-04-18T04:34:37.793Z,15.95
2023-04-18T04:37:08.368Z,17.85
2023-04-18T04:39:42.074Z,22.83
2023-04-18T04:42:32.311Z,20.15
2023-04-18T04:45:08.541Z,19.98
2023-04-18T04:47:37.038Z,33.17
2023-04-18T04:50:06.517Z,18.05
2023-04-18T04:52:33.775Z,16.83
2023-04-18T04:55:02.200Z,19.60
2023-04-18T04:57:29.321Z,24.45
2023-04-18T04:59:56.596Z,24.83
2023-04-18T05:02:23.946Z,23.48
2023-04-18T05:04:51.356Z,17.92
2023-04-18T05:07:18.456Z,22.90
2023-04-18T05:09:45.566Z,28.08
2023-04-18T05:12:12.708Z,23.23
2023-04-18T05:14:39.837Z,29.70
2023-04-18T05:17:07.947Z,19.92
2023-04-18T05:19:36.104Z,27.98
2023-04-18T05:22:03.617Z,23.55
2023-04-18T05:24:32.814Z,19.00
2023-04-18T05:27:00.226Z,24.27
2023-04-18T05:29:27.797Z,26.83
2023-04-18T05:31:55.249Z,29.63
2023-04-18T05:34:22.678Z,22.20
2023-04-18T05:36:50.392Z,22.80
2023-04-18T05:39:17.854Z,28.55
2023-04-18T05:41:44.912Z,21.75
2023-04-18T05:44:12.758Z,24.05
2023-04-18T05:46:42.000Z,24.80
2023-04-18T05:49:09.294Z,30.50
2023-04-18T05:51:37.400Z,26.08
2023-04-18T05:54:04.715Z,25.60
2023-04-18T05:56:32.134Z,18.55
2023-04-18T05:58:59.776Z,22.92
2023-04-18T06:01:27.863Z,21.20
2023-04-18T06:03:56.068Z,16.80
2023-04-18T06:06:23.940Z,23.10
2023-04-18T06:08:51.606Z,26.02
2023-04-18T06:11:21.457Z,22.55
2023-04-18T06:13:49.261Z,26.10
2023-04-18T06:16:16.757Z,21.77
2023-04-18T06:18:44.170Z,20.20
2023-04-18T06:21:11.236Z,23.17
2023-04-18T06:23:39.008Z,21.27
2023-04-18T06:26:07.728Z,35.28
2023-04-18T06:28:35.328Z,23.20
2023-04-18T06:31:02.983Z,25.67
2023-04-18T06:33:30.061Z,23.90
2023-04-18T06:35:58.335Z,40.30
2023-04-18T06:38:25.801Z,48.72
2023-04-18T06:40:53.462Z,43.63
2023-04-18T06:43:22.942Z,46.15
2023-04-18T06:45:51.169Z,42.08
2023-04-18T06:48:18.273Z,36.85
2023-04-18T06:50:46.216Z,34.47
2023-04-18T06:53:13.419Z,33.65
2023-04-18T06:55:41.225Z,29.60
2023-04-18T06:58:09.429Z,31.50
2023-04-18T07:00:37.061Z,31.45
2023-04-18T07:03:11.371Z,27.55
2023-04-18T07:05:42.008Z,29.02
2023-04-18T07:08:09.592Z,27.65
2023-04-18T07:10:36.920Z,27.05
2023-04-18T07:13:04.963Z,29.17
2023-04-18T07:15:32.150Z,21.42
2023-04-18T07:17:59.770Z,22.95
2023-04-18T07:20:26.987Z,24.52
2023-04-18T07:22:54.395Z,19.30
2023-04-18T07:25:22.222Z,19.65
2023-04-18T07:27:50.470Z,14.23
2023-04-18T07:30:17.552Z,16.38
2023-04-18T07:32:45.198Z,16.55
2023-04-18T07:35:12.655Z,18.75
2023-04-18T07:37:39.957Z,18.15
2023-04-18T07:40:07.609Z,15.50
2023-04-18T07:42:34.785Z,15.68
2023-04-18T07:45:01.886Z,18.55
2023-04-18T07:47:30.759Z,14.80
2023-04-18T07:49:58.687Z,15.93
2023-04-18T07:52:26.118Z,17.08
2023-04-18T07:54:53.389Z,19.13
2023-04-18T07:57:20.768Z,23.15
2023-04-18T07:59:48.019Z,21.25
2023-04-18T08:02:15.362Z,29.33
2023-04-18T08:04:42.697Z,26.02
2023-04-18T08:07:09.919Z,32.28
2023-04-18T08:09:37.048Z,22.15
2023-04-18T08:12:04.359Z,26.23
2023-04-18T08:14:31.587Z,25.67
2023-04-18T08:16:58.757Z,27.60
2023-04-18T08:19:26.645Z,27.73
2023-04-18T08:21:53.768Z,31.52
2023-04-18T08:24:21.058Z,31.02
2023-04-18T08:26:48.312Z,27.73
2023-04-18T08:29:15.502Z,35.42
2023-04-18T08:31:42.713Z,32.60
2023-04-18T08:34:09.999Z,28.88
2023-04-18T08:36:37.119Z,21.92
2023-04-18T08:39:04.702Z,15.13
2023-04-18T08:41:37.229Z,21.52
2023-04-18T08:44:04.500Z,18.92
2023-04-18T08:46:37.504Z,9.20
2023-04-18T08:49:06.540Z,12.20
2023-04-18T08:51:34.154Z,9.57
2023-04-18T08:54:04.712Z,19.48
2023-04-18T08:56:32.389Z,4.97
2023-04-18T08:59:00.652Z,7.03
2023-04-18T09:01:56.794Z,6.22
2023-04-18T09:04:37.519Z,9.38
2023-04-18T09:07:07.522Z,6.65
2023-04-18T09:09:48.965Z,8.05
2023-04-18T09:12:25.719Z,7.15
2023-04-18T09:14:57.985Z,9.32
2023-04-18T09:17:32.285Z,9.57
2023-04-18T09:20:00.395Z,10.73
2023-04-18T09:22:46.470Z,10.85
2023-04-18T09:25:45.432Z,7.38
2023-04-18T09:28:33.383Z,10.00
2023-04-18T09:31:04.676Z,15.50
2023-04-18T09:33:37.129Z,11.10
2023-04-18T09:36:31.527Z,6.20
2023-04-18T09:38:58.909Z,9.95
2023-04-18T09:41:26.028Z,8.07
2023-04-18T09:44:13.528Z,5.95
2023-04-18T09:46:43.351Z,8.45
2023-04-18T09:49:12.875Z,5.03
2023-04-18T09:51:42.420Z,5.50
2023-04-18T09:54:15.403Z,9.57
2023-04-18T09:56:47.092Z,11.48
2023-04-18T09:59:19.837Z,6.13
2023-04-18T10:01:50.054Z,9.60
2023-04-18T10:04:18.684Z,6.63
2023-04-18T10:06:47.098Z,3.28
2023-04-18T10:09:16.394Z,3.85
2023-04-18T10:11:44.672Z,2.70
2023-04-18T10:14:14.921Z,3.60
2023-04-18T10:16:45.927Z,8.75
2023-04-18T10:19:27.660Z,5.43
2023-04-18T10:22:00.793Z,7.88
2023-04-18T10:24:56.488Z,9.30
2023-04-18T10:27:48.149Z,12.57
2023-04-18T10:30:16.590Z,7.75
2023-04-18T10:32:46.216Z,6.85
2023-04-18T10:35:13.418Z,9.15
2023-04-18T10:37:51.375Z,5.68
2023-04-18T10:40:33.217Z,9.02
2023-04-18T10:43:00.699Z,7.72
2023-04-18T10:45:31.825Z,4.43
2023-04-18T10:48:29.676Z,7.97
2023-04-18T10:51:19.235Z,10.38
2023-04-18T10:53:53.060Z,7.63
2023-04-18T10:56:20.968Z,7.82
2023-04-18T10:58:52.366Z,7.93
2023-04-18T11:01:33.398Z,6.80
2023-04-18T11:04:01.582Z,5.18
2023-04-18T11:06:29.332Z,5.93
2023-04-18T11:09:12.783Z,3.67
2023-04-18T11:11:40.557Z,6.50
2023-04-18T11:14:08.032Z,8.70
2023-04-18T11:16:35.431Z,6.30
2023-04-18T11:19:22.161Z,6.18
2023-04-18T11:21:49.888Z,5.03
2023-04-18T11:24:24.238Z,4.80
2023-04-18T11:26:56.437Z,4.97
2023-04-18T11:29:23.643Z,2.85
2023-04-18T11:31:58.330Z,3.85
2023-04-18T11:34:33.197Z,8.00
2023-04-18T11:37:00.708Z,6.90
2023-04-18T11:39:28.239Z,2.50
2023-04-18T11:41:57.468Z,3.03
2023-04-18T11:44:25.211Z,1.25
2023-04-18T11:46:54.991Z,3.33
2023-04-18T11:49:25.698Z,9.25
2023-04-18T11:51:53.938Z,5.68
2023-04-18T11:54:40.117Z,3.25
2023-04-18T11:57:19.359Z,10.77
2023-04-18T12:00:07.122Z,3.08
2023-04-18T12:02:45.123Z,3.60
2023-04-18T12:05:15.323Z,2.38
2023-04-18T12:07:48.927Z,4.40
2023-04-18T12:10:31.632Z,4.60
2023-04-18T12:13:00.068Z,5.65
2023-04-18T12:15:29.786Z,6.60
2023-04-18T12:18:02.482Z,5.28
2023-04-18T12:20:46.528Z,6.88
2023-04-18T12:23:30.350Z,3.90
2023-04-18T12:26:05.193Z,5.18
2023-04-18T12:28:33.047Z,5.38
2023-04-18T12:31:00.273Z,7.75
2023-04-18T12:33:27.830Z,10.98
2023-04-18T12:35:55.012Z,4.13
2023-04-18T12:38:23.628Z,4.57
2023-04-18T12:40:52.033Z,5.18
2023-04-18T12:43:21.897Z,3.15
2023-04-18T12:45:50.320Z,3.95
2023-04-18T12:48:17.418Z,3.95
2023-04-18T12:50:44.696Z,4.15
2023-04-18T12:53:11.944Z,1.80
2023-04-18T12:55:39.240Z,12.57
2023-04-18T12:58:06.344Z,3.72
2023-04-18T13:00:33.804Z,11.15
2023-04-18T13:03:01.511Z,9.95
2023-04-18T13:05:33.166Z,7.90
2023-04-18T13:10:31.396Z,9.60
2023-04-18T13:12:58.702Z,8.05
2023-04-18T13:15:27.715Z,8.52
2023-04-18T13:17:57.106Z,10.18
2023-04-18T13:20:24.413Z,11.10
2023-04-18T13:22:51.526Z,7.93
2023-04-18T13:25:18.685Z,6.88
2023-04-18T13:27:46.299Z,6.97
2023-04-18T13:30:13.792Z,6.75
2023-04-18T13:32:41.158Z,8.57
2023-04-18T13:35:11.046Z,5.78
2023-04-18T13:37:38.943Z,7.18
2023-04-18T13:40:07.069Z,9.30
2023-04-18T13:42:37.109Z,10.15
2023-04-18T13:45:04.983Z,6.82
2023-04-18T13:47:32.498Z,6.93
2023-04-18T13:49:59.903Z,6.72
2023-04-18T13:52:27.053Z,7.90
2023-04-18T13:54:54.412Z,6.30
2023-04-18T13:57:22.289Z,11.43
2023-04-18T13:59:49.521Z,14.98
2023-04-18T14:02:16.967Z,13.52
2023-04-18T14:04:44.323Z,11.23
2023-04-18T14:07:11.759Z,15.77
2023-04-18T14:09:38.996Z,10.65
2023-04-18T14:12:06.414Z,14.32
2023-04-18T14:14:33.618Z,9.40
2023-04-18T14:17:03.365Z,12.85
2023-04-18T14:19:30.546Z,11.95
2023-04-18T14:21:57.694Z,8.68
2023-04-18T14:24:24.837Z,11.70
2023-04-18T14:26:52.064Z,12.15
2023-04-18T14:29:19.295Z,9.73
2023-04-18T14:31:46.656Z,9.27
2023-04-18T14:34:14.144Z,12.85
2023-04-18T14:36:41.498Z,15.68
2023-04-18T14:39:08.766Z,13.00
2023-04-18T14:41:36.106Z,6.47
2023-04-18T14:44:04.406Z,12.85
2023-04-18T14:46:31.779Z,7.13
2023-04-18T14:48:59.028Z,7.50
2023-04-18T14:51:26.566Z,8.90
2023-04-18T14:53:53.743Z,10.07
2023-04-18T14:56:22.426Z,12.57
2023-04-18T14:58:49.571Z,12.35
2023-04-18T15:01:19.680Z,8.55
2023-04-18T15:03:47.040Z,9.35
2023-04-18T15:06:14.385Z,5.53
2023-04-18T15:08:41.536Z,10.07
2023-04-18T15:11:09.259Z,8.43
2023-04-18T15:13:36.790Z,5.93
2023-04-18T15:16:04.131Z,5.97
2023-04-18T15:18:31.334Z,3.97
2023-04-18T15:20:59.909Z,7.18
2023-04-18T15:23:27.885Z,7.22
2023-04-18T15:25:55.173Z,10.20
2023-04-18T15:28:22.528Z,9.40
2023-04-18T15:30:49.678Z,9.25
2023-04-18T15:33:19.333Z,12.10
2023-04-18T15:35:47.957Z,7.80
2023-04-18T15:38:15.293Z,6.38
2023-04-18T15:40:43.804Z,7.15
2023-04-18T15:43:11.364Z,6.97
2023-04-18T15:45:38.547Z,11.85
2023-04-18T15:48:05.948Z,12.88
2023-04-18T15:50:34.080Z,9.00
2023-04-18T15:53:01.869Z,8.30
2023-04-18T15:55:29.069Z,4.82
2023-04-18T15:57:56.548Z,9.27
2023-04-18T16:00:24.420Z,5.65
2023-04-18T16:02:51.799Z,6.28
2023-04-18T16:05:19.348Z,7.18
2023-04-18T16:07:46.664Z,7.13
2023-04-18T16:10:15.522Z,7.82
2023-04-18T16:12:42.817Z,11.23
2023-04-18T16:15:12.046Z,7.10
2023-04-18T16:17:40.319Z,8.93
2023-04-18T16:20:09.922Z,9.35
2023-04-18T16:22:39.096Z,10.77
2023-04-18T16:25:08.532Z,11.23
2023-04-18T16:27:37.731Z,8.43
2023-04-18T16:30:06.545Z,11.32
2023-04-18T16:32:34.719Z,9.20
2023-04-18T16:35:04.469Z,10.07
2023-04-18T16:37:33.554Z,9.98
2023-04-18T16:40:01.314Z,5.93
2023-04-18T16:42:28.515Z,14.80
2023-04-18T16:44:55.725Z,14.35
2023-04-18T16:47:22.838Z,17.88
2023-04-18T16:49:51.626Z,24.00
2023-04-18T16:52:19.200Z,14.98
2023-04-18T16:54:46.326Z,11.73
2023-04-18T16:57:13.580Z,10.00
2023-04-18T16:59:42.152Z,8.02
2023-04-18T17:02:09.521Z,10.15
2023-04-18T17:04:37.256Z,10.73
2023-04-18T17:07:04.599Z,7.57
2023-04-18T17:09:32.367Z,15.73
2023-04-18T17:11:59.663Z,10.57
2023-04-18T17:14:26.931Z,12.27
2023-04-18T17:16:54.180Z,13.13
2023-04-18T17:19:21.634Z,13.15
2023-04-18T17:21:49.738Z,12.35
2023-04-18T17:24:19.010Z,10.25
2023-04-18T17:26:46.250Z,9.05
2023-04-18T17:29:13.659Z,10.27
2023-04-18T17:31:41.438Z,11.40
2023-04-18T17:34:08.663Z,9.07
2023-04-18T17:36:35.962Z,8.13
2023-04-18T17:39:06.800Z,6.95
2023-04-18T17:41:39.952Z,5.72
2023-04-18T17:44:08.678Z,4.90
2023-04-18T17:46:36.274Z,4.07
2023-04-18T17:49:04.849Z,3.65
2023-04-18T17:51:32.177Z,6.63
2023-04-18T17:53:59.336Z,7.28
2023-04-18T17:56:27.256Z,5.85
2023-04-18T17:58:56.578Z,8.43
2023-04-18T18:01:25.036Z,8.65
2023-04-18T18:03:54.088Z,9.00
2023-04-18T18:06:21.868Z,7.88
2023-04-18T18:08:49.177Z,8.18
2023-04-18T18:11:16.546Z,12.70
2023-04-18T18:13:44.218Z,8.18
2023-04-18T18:16:11.895Z,31.52
2023-04-18T18:18:39.769Z,17.55
2023-04-18T18:21:06.997Z,41.10
2023-04-18T18:23:34.328Z,20.98
2023-04-18T18:26:01.551Z,18.85
2023-04-18T18:28:29.125Z,12.95
2023-04-18T18:30:56.293Z,11.80
2023-04-18T18:33:23.592Z,13.32
2023-04-18T18:35:51.127Z,14.93
2023-04-18T18:38:18.342Z,13.32
2023-04-18T18:40:46.058Z,7.68
2023-04-18T18:43:13.572Z,9.73
2023-04-18T18:45:40.873Z,8.63
2023-04-18T18:48:12.058Z,12.60
2023-04-18T18:50:39.289Z,9.13
2023-04-18T18:53:07.437Z,8.65
2023-04-18T18:55:34.504Z,10.43
2023-04-18T18:58:02.830Z,9.10
2023-04-18T19:00:30.221Z,12.05
2023-04-18T19:02:57.824Z,13.07
2023-04-18T19:05:25.101Z,12.07
2023-04-18T19:07:52.483Z,13.15
2023-04-18T19:10:19.910Z,13.98
2023-04-18T19:12:47.369Z,12.00
2023-04-18T19:15:15.050Z,9.18
2023-04-18T19:17:42.268Z,15.27
2023-04-18T19:20:09.772Z,12.90
2023-04-18T19:22:37.756Z,13.70
2023-04-18T19:25:05.159Z,14.45
2023-04-18T19:27:32.508Z,14.13
2023-04-18T19:29:59.624Z,15.35
2023-04-18T19:32:27.221Z,17.95
2023-04-18T19:34:54.425Z,18.80
2023-04-18T19:37:21.654Z,19.15
2023-04-18T19:39:48.819Z,17.52
2023-04-18T19:42:15.933Z,18.38
2023-04-18T19:44:43.203Z,16.73
2023-04-18T19:47:10.462Z,16.98
2023-04-18T19:49:38.109Z,16.35
2023-04-18T19:52:05.459Z,18.88
2023-04-18T19:54:36.223Z,18.85
2023-04-18T19:57:04.966Z,28.35
2023-04-18T19:59:32.330Z,28.65
2023-04-18T20:02:03.287Z,23.23
2023-04-18T20:04:35.237Z,19.88
2023-04-18T20:07:02.980Z,25.00
2023-04-18T20:09:30.165Z,16.85
2023-04-18T20:12:00.689Z,16.50
2023-04-18T20:14:29.087Z,13.95
2023-04-18T20:16:56.887Z,14.70
2023-04-18T20:19:27.132Z,16.77
2023-04-18T20:21:54.249Z,15.30
2023-04-18T20:24:24.085Z,16.40
2023-04-18T20:26:51.942Z,14.73
2023-04-18T20:29:19.119Z,19.20
2023-04-18T20:31:46.485Z,20.45
2023-04-18T20:34:13.692Z,49.92
2023-04-18T20:36:41.858Z,54.90
2023-04-18T20:39:09.500Z,32.35
2023-04-18T20:41:37.341Z,24.77
2023-04-18T20:44:09.413Z,24.52
2023-04-18T20:46:36.616Z,23.73
2023-04-18T20:49:03.927Z,20.90
2023-04-18T20:51:32.068Z,24.13
2023-04-18T20:53:59.243Z,21.33
2023-04-18T20:56:26.711Z,26.35
2023-04-18T20:58:53.816Z,25.40
2023-04-18T21:01:22.129Z,26.52
2023-04-18T21:03:54.644Z,30.33
2023-04-18T21:06:22.329Z,26.63
2023-04-18T21:08:50.196Z,29.13
2023-04-18T21:11:17.328Z,16.42
2023-04-18T21:13:44.523Z,15.27
2023-04-18T21:16:11.731Z,12.38
2023-04-18T21:18:38.857Z,11.73
2023-04-18T21:21:06.447Z,13.73
2023-04-18T21:23:33.686Z,12.98
2023-04-18T21:26:00.903Z,16.10
2023-04-18T21:28:28.065Z,18.13
2023-04-18T21:30:55.254Z,25.42
2023-04-18T21:33:23.976Z,23.55
2023-04-18T21:35:51.240Z,28.17
2023-04-18T21:38:18.458Z,25.58
2023-04-18T21:40:45.603Z,24.90
2023-04-18T21:43:12.768Z,21.92
2023-04-18T21:45:40.122Z,22.40
2023-04-18T21:48:09.884Z,22.13
2023-04-18T21:50:37.064Z,20.25
2023-04-18T21:53:04.210Z,21.33
2023-04-18T21:55:31.368Z,23.92
2023-04-18T21:57:59.965Z,19.02
2023-04-18T22:00:27.961Z,20.50
2023-04-18T22:02:55.337Z,18.88
2023-04-18T22:05:22.526Z,23.23
2023-04-18T22:07:57.548Z,25.15
2023-04-18T22:10:25.878Z,20.77
2023-04-18T22:12:54.375Z,19.17
2023-04-18T22:15:21.868Z,20.17
2023-04-18T22:17:50.746Z,23.77
2023-04-18T22:20:17.968Z,22.95
2023-04-18T22:22:45.972Z,20.63
2023-04-18T22:25:13.158Z,19.60
2023-04-18T22:27:41.194Z,23.52
2023-04-18T22:30:09.476Z,18.45
2023-04-18T22:32:37.049Z,22.52
2023-04-18T22:35:04.485Z,22.13
2023-04-18T22:37:31.772Z,18.42
2023-04-18T22:39:59.026Z,20.92
2023-04-18T22:42:26.206Z,20.40
2023-04-18T22:44:53.444Z,19.73
2023-04-18T22:47:20.909Z,25.50
2023-04-18T22:49:48.095Z,28.20
2023-04-18T22:52:15.990Z,24.88
2023-04-18T22:54:43.284Z,16.23
2023-04-18T22:57:10.533Z,18.27
2023-04-18T22:59:37.908Z,18.58
2023-04-18T23:02:05.396Z,23.08
2023-04-18T23:04:33.405Z,21.27
2023-04-18T23:07:00.699Z,19.85
2023-04-18T23:09:28.790Z,17.20
2023-04-18T23:11:56.902Z,16.00
2023-04-18T23:14:24.279Z,18.95
2023-04-18T23:16:51.896Z,20.48
2023-04-18T23:19:19.701Z,18.17
2023-04-18T23:21:48.973Z,21.15
2023-04-18T23:24:17.246Z,22.88
2023-04-18T23:26:44.462Z,16.20
2023-04-18T23:29:12.170Z,16.55
2023-04-18T23:31:39.810Z,14.60
2023-04-18T23:34:08.787Z,18.92
2023-04-18T23:36:36.510Z,20.48
2023-04-18T23:39:04.480Z,18.10
2023-04-18T23:41:31.613Z,19.13
2023-04-18T23:44:01.440Z,18.65
2023-04-18T23:46:31.455Z,24.95
2023-04-18T23:48:59.574Z,17.17
2023-04-18T23:51:28.453Z,17.95
2023-04-18T23:53:55.933Z,19.70
2023-04-18T23:56:23.502Z,11.40
2023-04-18T23:58:50.914Z,13.18
